sensor_id;sensor_type;location;lat;lon;timestamp;pressure;altitude;pressure_sealevel;temperature;humidity
15260;BME280;34462;51.368;12.364;2023-07-22T00:00:50;20395.13;;;-141.84;84.36
15260;BME280;34462;51.368;12.364;2023-07-22T00:03:19;20350.41;;;-141.84;85.90
15260;BME280;34462;51.368;12.364;2023-07-22T00:05:49;20295.53;;;-141.84;87.42
15260;BME280;34462;51.368;12.364;2023-07-22T00:08:29;20313.84;;;-141.84;88.18
15260;BME280;34462;51.368;12.364;2023-07-22T00:10:58;20301.63;;;-141.84;88.54
15260;BME280;34462;51.368;12.364;2023-07-22T00:13:27;20295.53;;;-141.84;88.99
15260;BME280;34462;51.368;12.364;2023-07-22T00:15:55;20319.94;;;-141.84;88.72
15260;BME280;34462;51.368;12.364;2023-07-22T00:18:24;20273.19;;;-141.84;88.88
15260;BME280;34462;51.368;12.364;2023-07-22T00:20:55;20334.16;;;-141.84;89.58
15260;BME280;34462;51.368;12.364;2023-07-22T00:23:24;20265.03;;;-141.84;88.91
15260;BME280;34462;51.368;12.364;2023-07-22T00:25:53;20240.66;;;-141.84;89.31
15260;BME280;34462;51.368;12.364;2023-07-22T00:28:21;20271.16;;;-141.84;89.93
15260;BME280;34462;51.368;12.364;2023-07-22T00:30:50;20263.00;;;-141.84;89.90
15260;BME280;34462;51.368;12.364;2023-07-22T00:33:21;20263.00;;;-141.84;89.22
15260;BME280;34462;51.368;12.364;2023-07-22T00:35:50;20216.25;;;-141.84;89.77
15260;BME280;34462;51.368;12.364;2023-07-22T00:38:20;20265.03;;;-141.84;90.23
15260;BME280;34462;51.368;12.364;2023-07-22T00:40:49;20244.72;;;-141.84;89.92
15260;BME280;34462;51.368;12.364;2023-07-22T00:43:17;20234.56;;;-141.84;89.46
15260;BME280;34462;51.368;12.364;2023-07-22T00:45:46;20254.88;;;-141.84;89.60
15260;BME280;34462;51.368;12.364;2023-07-22T00:48:15;20240.66;;;-141.84;89.86
15260;BME280;34462;51.368;12.364;2023-07-22T00:50:44;20226.44;;;-141.84;89.98
15260;BME280;34462;51.368;12.364;2023-07-22T00:53:13;20200.00;;;-141.84;90.29
15260;BME280;34462;51.368;12.364;2023-07-22T00:55:43;20254.88;;;-141.84;90.37
15260;BME280;34462;51.368;12.364;2023-07-22T00:58:13;20226.44;;;-141.84;90.38
15260;BME280;34462;51.368;12.364;2023-07-22T01:00:41;20260.97;;;-141.84;89.50
15260;BME280;34462;51.368;12.364;2023-07-22T01:03:10;20224.41;;;-141.84;88.91
15260;BME280;34462;51.368;12.364;2023-07-22T01:05:40;20222.38;;;-141.84;89.33
15260;BME280;34462;51.368;12.364;2023-07-22T01:08:09;20244.72;;;-141.84;89.24
15260;BME280;34462;51.368;12.364;2023-07-22T01:10:38;20216.25;;;-141.84;89.52
15260;BME280;34462;51.368;12.364;2023-07-22T01:13:08;20236.59;;;-141.84;89.15
15260;BME280;34462;51.368;12.364;2023-07-22T01:15:37;20234.56;;;-141.84;89.04
15260;BME280;34462;51.368;12.364;2023-07-22T01:18:06;20208.13;;;-141.84;88.65
15260;BME280;34462;51.368;12.364;2023-07-22T01:20:36;20234.56;;;-141.84;88.47
15260;BME280;34462;51.368;12.364;2023-07-22T01:23:06;20238.63;;;-141.84;88.31
15260;BME280;34462;51.368;12.364;2023-07-22T01:25:35;20236.59;;;-141.84;88.40
15260;BME280;34462;51.368;12.364;2023-07-22T01:28:08;20242.69;;;-141.84;89.03
15260;BME280;34462;51.368;12.364;2023-07-22T01:30:37;20234.56;;;-141.84;88.96
15260;BME280;34462;51.368;12.364;2023-07-22T01:33:07;20263.00;;;-141.84;89.12
15260;BME280;34462;51.368;12.364;2023-07-22T01:35:35;20263.00;;;-141.84;89.42
15260;BME280;34462;51.368;12.364;2023-07-22T01:38:05;20244.72;;;-141.84;89.54
15260;BME280;34462;51.368;12.364;2023-07-22T01:40:35;20250.81;;;-141.84;89.43
15260;BME280;34462;51.368;12.364;2023-07-22T01:43:03;20267.09;;;-141.84;89.43
15260;BME280;34462;51.368;12.364;2023-07-22T01:45:32;20246.75;;;-141.84;89.59
15260;BME280;34462;51.368;12.364;2023-07-22T01:48:00;20236.59;;;-141.84;89.73
15260;BME280;34462;51.368;12.364;2023-07-22T01:50:29;20208.13;;;-141.84;90.02
15260;BME280;34462;51.368;12.364;2023-07-22T01:52:57;20195.94;;;-141.84;90.07
15260;BME280;34462;51.368;12.364;2023-07-22T01:55:27;20212.19;;;-141.84;89.84
15260;BME280;34462;51.368;12.364;2023-07-22T01:57:56;20230.50;;;-141.84;89.54
15260;BME280;34462;51.368;12.364;2023-07-22T02:00:24;20230.50;;;-141.84;88.83
15260;BME280;34462;51.368;12.364;2023-07-22T02:02:54;20267.09;;;-141.84;87.91
15260;BME280;34462;51.368;12.364;2023-07-22T02:05:22;20281.31;;;-141.84;85.76
15260;BME280;34462;51.368;12.364;2023-07-22T02:07:51;20265.03;;;-141.84;86.43
15260;BME280;34462;51.368;12.364;2023-07-22T02:10:22;20260.97;;;-141.84;86.69
15260;BME280;34462;51.368;12.364;2023-07-22T02:12:52;20218.31;;;-141.84;86.50
15260;BME280;34462;51.368;12.364;2023-07-22T02:15:21;20258.94;;;-141.84;86.50
15260;BME280;34462;51.368;12.364;2023-07-22T02:17:51;20210.16;;;-141.84;87.10
15260;BME280;34462;51.368;12.364;2023-07-22T02:20:22;20240.66;;;-141.84;87.36
15260;BME280;34462;51.368;12.364;2023-07-22T02:22:51;20244.72;;;-141.84;87.06
15260;BME280;34462;51.368;12.364;2023-07-22T02:25:19;20258.94;;;-141.84;85.75
15260;BME280;34462;51.368;12.364;2023-07-22T02:27:48;20252.84;;;-141.84;86.37
15260;BME280;34462;51.368;12.364;2023-07-22T02:30:18;20269.13;;;-141.84;86.34
15260;BME280;34462;51.368;12.364;2023-07-22T02:32:46;20305.69;;;-141.84;84.25
15260;BME280;34462;51.368;12.364;2023-07-22T02:35:15;20342.28;;;-141.84;84.12
15260;BME280;34462;51.368;12.364;2023-07-22T02:37:44;20283.34;;;-141.84;84.68
15260;BME280;34462;51.368;12.364;2023-07-22T02:40:12;20309.75;;;-141.84;83.66
15260;BME280;34462;51.368;12.364;2023-07-22T02:42:41;20289.44;;;-141.84;84.30
15260;BME280;34462;51.368;12.364;2023-07-22T02:45:10;20309.75;;;-141.84;84.08
15260;BME280;34462;51.368;12.364;2023-07-22T02:47:41;20281.31;;;-141.84;84.30
15260;BME280;34462;51.368;12.364;2023-07-22T02:50:10;20307.72;;;-141.84;85.19
15260;BME280;34462;51.368;12.364;2023-07-22T02:52:38;20256.91;;;-141.84;85.97
15260;BME280;34462;51.368;12.364;2023-07-22T02:55:12;20277.25;;;-141.84;86.54
15260;BME280;34462;51.368;12.364;2023-07-22T02:57:41;20299.59;;;-141.84;86.43
15260;BME280;34462;51.368;12.364;2023-07-22T03:00:10;20315.88;;;-141.84;85.77
15260;BME280;34462;51.368;12.364;2023-07-22T03:02:41;20311.78;;;-141.84;83.94
15260;BME280;34462;51.368;12.364;2023-07-22T03:05:10;20334.16;;;-141.84;82.41
15260;BME280;34462;51.368;12.364;2023-07-22T03:07:39;20319.94;;;-141.84;83.05
15260;BME280;34462;51.368;12.364;2023-07-22T03:10:08;20301.63;;;-141.84;84.14
15260;BME280;34462;51.368;12.364;2023-07-22T03:12:38;20319.94;;;-141.84;84.51
15260;BME280;34462;51.368;12.364;2023-07-22T03:15:08;20269.13;;;-141.84;85.54
15260;BME280;34462;51.368;12.364;2023-07-22T03:17:37;20277.25;;;-141.84;86.11
15260;BME280;34462;51.368;12.364;2023-07-22T03:20:08;20254.88;;;-141.84;86.06
15260;BME280;34462;51.368;12.364;2023-07-22T03:22:41;20269.13;;;-141.84;86.03
15260;BME280;34462;51.368;12.364;2023-07-22T03:25:10;20328.06;;;-141.84;84.60
15260;BME280;34462;51.368;12.364;2023-07-22T03:27:39;20305.69;;;-141.84;85.09
15260;BME280;34462;51.368;12.364;2023-07-22T03:30:10;20273.19;;;-141.84;85.13
15260;BME280;34462;51.368;12.364;2023-07-22T03:32:39;20315.88;;;-141.84;84.22
15260;BME280;34462;51.368;12.364;2023-07-22T03:35:09;20307.72;;;-141.84;83.74
15260;BME280;34462;51.368;12.364;2023-07-22T03:37:40;20317.91;;;-141.84;83.41
15260;BME280;34462;51.368;12.364;2023-07-22T03:40:09;20273.19;;;-141.84;84.30
15260;BME280;34462;51.368;12.364;2023-07-22T03:42:47;20273.19;;;-141.84;84.78
15260;BME280;34462;51.368;12.364;2023-07-22T03:45:16;20301.63;;;-141.84;85.03
15260;BME280;34462;51.368;12.364;2023-07-22T03:47:45;20330.09;;;-141.84;85.04
15260;BME280;34462;51.368;12.364;2023-07-22T03:50:15;20307.72;;;-141.84;83.87
15260;BME280;34462;51.368;12.364;2023-07-22T03:52:44;20321.97;;;-141.84;84.33
15260;BME280;34462;51.368;12.364;2023-07-22T03:55:12;20267.09;;;-141.84;85.01
15260;BME280;34462;51.368;12.364;2023-07-22T03:57:41;20275.22;;;-141.84;85.45
15260;BME280;34462;51.368;12.364;2023-07-22T04:00:10;20263.00;;;-141.84;85.23
15260;BME280;34462;51.368;12.364;2023-07-22T04:02:38;20252.84;;;-141.84;85.28
15260;BME280;34462;51.368;12.364;2023-07-22T04:05:08;20303.66;;;-141.84;84.81
15260;BME280;34462;51.368;12.364;2023-07-22T04:07:38;20269.13;;;-141.84;84.26
15260;BME280;34462;51.368;12.364;2023-07-22T04:10:07;20281.31;;;-141.84;83.31
15260;BME280;34462;51.368;12.364;2023-07-22T04:12:36;20240.66;;;-141.84;84.43
15260;BME280;34462;51.368;12.364;2023-07-22T04:15:09;20254.88;;;-141.84;84.37
15260;BME280;34462;51.368;12.364;2023-07-22T04:17:38;20260.97;;;-141.84;84.53
15260;BME280;34462;51.368;12.364;2023-07-22T04:20:08;20297.56;;;-141.84;84.44
15260;BME280;34462;51.368;12.364;2023-07-22T04:22:38;20295.53;;;-141.84;83.22
15260;BME280;34462;51.368;12.364;2023-07-22T04:25:07;20287.41;;;-141.84;83.33
15260;BME280;34462;51.368;12.364;2023-07-22T04:27:38;20299.59;;;-141.84;83.22
15260;BME280;34462;51.368;12.364;2023-07-22T04:30:07;20279.28;;;-141.84;83.75
15260;BME280;34462;51.368;12.364;2023-07-22T04:32:36;20372.78;;;-141.84;81.97
15260;BME280;34462;51.368;12.364;2023-07-22T04:35:06;20344.31;;;-141.84;82.36
15260;BME280;34462;51.368;12.364;2023-07-22T04:37:35;20346.34;;;-141.84;82.12
15260;BME280;34462;51.368;12.364;2023-07-22T04:40:06;20326.03;;;-141.84;81.86
15260;BME280;34462;51.368;12.364;2023-07-22T04:42:41;20372.78;;;-141.84;81.32
15260;BME280;34462;51.368;12.364;2023-07-22T04:45:10;20378.88;;;-141.84;80.87
15260;BME280;34462;51.368;12.364;2023-07-22T04:47:39;20407.34;;;-141.84;80.09
15260;BME280;34462;51.368;12.364;2023-07-22T04:50:09;20423.59;;;-141.84;79.35
15260;BME280;34462;51.368;12.364;2023-07-22T04:52:37;20403.25;;;-141.84;80.97
15260;BME280;34462;51.368;12.364;2023-07-22T04:55:08;20441.88;;;-141.84;79.60
15260;BME280;34462;51.368;12.364;2023-07-22T04:57:38;20470.34;;;-141.84;78.50
15260;BME280;34462;51.368;12.364;2023-07-22T05:00:08;20533.34;;;-141.84;79.59
15260;BME280;34462;51.368;12.364;2023-07-22T05:02:39;20850.47;;;-141.84;72.46
15260;BME280;34462;51.368;12.364;2023-07-22T05:05:08;21131.03;;;-141.84;69.20
15260;BME280;34462;51.368;12.364;2023-07-22T05:07:36;21537.66;;;-141.84;59.93
15260;BME280;34462;51.368;12.364;2023-07-22T05:10:08;21791.81;;;-141.84;56.97
15260;BME280;34462;51.368;12.364;2023-07-22T05:12:39;21987.03;;;-141.84;53.84
15260;BME280;34462;51.368;12.364;2023-07-22T05:15:09;22107.00;;;-141.84;52.28
15260;BME280;34462;51.368;12.364;2023-07-22T05:17:38;22257.50;;;-141.84;51.12
15260;BME280;34462;51.368;12.364;2023-07-22T05:20:07;22403.94;;;-141.84;49.75
15260;BME280;34462;51.368;12.364;2023-07-22T05:22:38;22475.09;;;-141.84;49.34
15260;BME280;34462;51.368;12.364;2023-07-22T05:25:09;22444.59;;;-141.84;49.18
15260;BME280;34462;51.368;12.364;2023-07-22T05:27:38;22405.97;;;-141.84;49.07
15260;BME280;34462;51.368;12.364;2023-07-22T05:30:08;22379.53;;;-141.84;49.22
15260;BME280;34462;51.368;12.364;2023-07-22T05:32:55;22273.78;;;-141.84;50.31
15260;BME280;34462;51.368;12.364;2023-07-22T05:35:23;22170.06;;;-141.84;50.68
15260;BME280;34462;51.368;12.364;2023-07-22T05:37:52;21867.06;;;-141.84;53.00
15260;BME280;34462;51.368;12.364;2023-07-22T05:40:22;21631.19;;;-141.84;55.71
15260;BME280;34462;51.368;12.364;2023-07-22T05:42:50;21497.00;;;-141.84;58.18
15260;BME280;34462;51.368;12.364;2023-07-22T05:45:19;21397.38;;;-141.84;59.25
15260;BME280;34462;51.368;12.364;2023-07-22T05:47:47;21350.59;;;-141.84;60.18
15260;BME280;34462;51.368;12.364;2023-07-22T05:50:16;21330.28;;;-141.84;60.62
15260;BME280;34462;51.368;12.364;2023-07-22T05:52:44;21299.78;;;-141.84;60.92
15260;BME280;34462;51.368;12.364;2023-07-22T05:55:13;21259.13;;;-141.84;61.93
15260;BME280;34462;51.368;12.364;2023-07-22T05:57:43;21218.44;;;-141.84;62.00
15260;BME280;34462;51.368;12.364;2023-07-22T06:00:12;21214.38;;;-141.84;62.30
15260;BME280;34462;51.368;12.364;2023-07-22T06:02:41;21220.47;;;-141.84;63.34
15260;BME280;34462;51.368;12.364;2023-07-22T06:05:10;21228.63;;;-141.84;63.72
15260;BME280;34462;51.368;12.364;2023-07-22T06:07:38;21212.34;;;-141.84;63.04
15260;BME280;34462;51.368;12.364;2023-07-22T06:10:08;21255.03;;;-141.84;62.84
15260;BME280;34462;51.368;12.364;2023-07-22T06:12:36;21244.88;;;-141.84;63.19
15260;BME280;34462;51.368;12.364;2023-07-22T06:15:08;21269.28;;;-141.84;62.49
15260;BME280;34462;51.368;12.364;2023-07-22T06:17:36;21238.78;;;-141.84;61.66
15260;BME280;34462;51.368;12.364;2023-07-22T06:20:06;21218.44;;;-141.84;61.42
15260;BME280;34462;51.368;12.364;2023-07-22T06:22:35;21248.94;;;-141.84;61.27
15260;BME280;34462;51.368;12.364;2023-07-22T06:25:04;21271.31;;;-141.84;61.31
15260;BME280;34462;51.368;12.364;2023-07-22T06:27:33;21295.72;;;-141.84;60.70
15260;BME280;34462;51.368;12.364;2023-07-22T06:30:03;21281.47;;;-141.84;60.88
15260;BME280;34462;51.368;12.364;2023-07-22T06:32:33;21318.06;;;-141.84;61.10
15260;BME280;34462;51.368;12.364;2023-07-22T06:35:02;21283.50;;;-141.84;59.56
15260;BME280;34462;51.368;12.364;2023-07-22T06:37:31;21360.78;;;-141.84;58.85
15260;BME280;34462;51.368;12.364;2023-07-22T06:40:00;21320.09;;;-141.84;58.09
15260;BME280;34462;51.368;12.364;2023-07-22T06:42:29;21362.81;;;-141.84;57.95
15260;BME280;34462;51.368;12.364;2023-07-22T06:44:57;21356.69;;;-141.84;57.29
15260;BME280;34462;51.368;12.364;2023-07-22T06:47:26;21381.09;;;-141.84;57.65
15260;BME280;34462;51.368;12.364;2023-07-22T06:49:56;21417.69;;;-141.84;57.25
15260;BME280;34462;51.368;12.364;2023-07-22T06:52:25;21366.88;;;-141.84;57.23
15260;BME280;34462;51.368;12.364;2023-07-22T06:54:53;21417.69;;;-141.84;56.94
15260;BME280;34462;51.368;12.364;2023-07-22T06:57:22;21444.13;;;-141.84;55.86
15260;BME280;34462;51.368;12.364;2023-07-22T06:59:54;21488.88;;;-141.84;56.57
15260;BME280;34462;51.368;12.364;2023-07-22T07:02:22;21480.72;;;-141.84;56.14
15260;BME280;34462;51.368;12.364;2023-07-22T07:04:51;21517.31;;;-141.84;55.95
15260;BME280;34462;51.368;12.364;2023-07-22T07:07:21;21527.50;;;-141.84;53.63
15260;BME280;34462;51.368;12.364;2023-07-22T07:09:50;21541.72;;;-141.84;53.20
15260;BME280;34462;51.368;12.364;2023-07-22T07:12:18;21497.00;;;-141.84;52.72
15260;BME280;34462;51.368;12.364;2023-07-22T07:14:50;21533.59;;;-141.84;53.79
15260;BME280;34462;51.368;12.364;2023-07-22T07:17:19;21564.09;;;-141.84;52.33
15260;BME280;34462;51.368;12.364;2023-07-22T07:19:47;21576.28;;;-141.84;50.96
15260;BME280;34462;51.368;12.364;2023-07-22T07:22:16;21576.28;;;-141.84;51.70
15260;BME280;34462;51.368;12.364;2023-07-22T07:24:46;21480.72;;;-141.84;51.50
15260;BME280;34462;51.368;12.364;2023-07-22T07:27:14;21419.72;;;-141.84;52.55
15260;BME280;34462;51.368;12.364;2023-07-22T07:29:43;21460.41;;;-141.84;50.77
15260;BME280;34462;51.368;12.364;2023-07-22T07:32:21;21464.47;;;-141.84;51.53
15260;BME280;34462;51.368;12.364;2023-07-22T07:34:51;21468.53;;;-141.84;52.32
15260;BME280;34462;51.368;12.364;2023-07-22T07:37:19;21503.09;;;-141.84;51.97
15260;BME280;34462;51.368;12.364;2023-07-22T07:39:49;21525.47;;;-141.84;51.45
15260;BME280;34462;51.368;12.364;2023-07-22T07:42:18;21462.44;;;-141.84;51.92
15260;BME280;34462;51.368;12.364;2023-07-22T07:44:46;21543.75;;;-141.84;51.70
15260;BME280;34462;51.368;12.364;2023-07-22T07:47:15;21539.69;;;-141.84;52.04
15260;BME280;34462;51.368;12.364;2023-07-22T07:49:43;21637.28;;;-141.84;51.88
15260;BME280;34462;51.368;12.364;2023-07-22T07:52:12;21702.34;;;-141.84;51.17
15260;BME280;34462;51.368;12.364;2023-07-22T07:54:40;21696.25;;;-141.84;50.86
15260;BME280;34462;51.368;12.364;2023-07-22T07:57:10;21710.50;;;-141.84;50.76
15260;BME280;34462;51.368;12.364;2023-07-22T07:59:39;21702.34;;;-141.84;48.88
15260;BME280;34462;51.368;12.364;2023-07-22T08:02:07;21651.53;;;-141.84;48.34
15260;BME280;34462;51.368;12.364;2023-07-22T08:04:37;21635.25;;;-141.84;47.63
15260;BME280;34462;51.368;12.364;2023-07-22T08:07:06;21631.19;;;-141.84;47.70
15260;BME280;34462;51.368;12.364;2023-07-22T08:09:36;21657.63;;;-141.84;46.20
15260;BME280;34462;51.368;12.364;2023-07-22T08:12:05;21610.84;;;-141.84;45.67
15260;BME280;34462;51.368;12.364;2023-07-22T08:14:35;21612.88;;;-141.84;46.25
15260;BME280;34462;51.368;12.364;2023-07-22T08:17:03;21627.13;;;-141.84;46.07
15260;BME280;34462;51.368;12.364;2023-07-22T08:19:32;21553.94;;;-141.84;46.81
15260;BME280;34462;51.368;12.364;2023-07-22T08:22:01;21572.22;;;-141.84;46.78
15260;BME280;34462;51.368;12.364;2023-07-22T08:24:30;21633.22;;;-141.84;47.05
15260;BME280;34462;51.368;12.364;2023-07-22T08:26:59;21665.75;;;-141.84;47.48
15260;BME280;34462;51.368;12.364;2023-07-22T08:29:28;21675.94;;;-141.84;46.81
15260;BME280;34462;51.368;12.364;2023-07-22T08:31:58;21680.00;;;-141.84;47.83
15260;BME280;34462;51.368;12.364;2023-07-22T08:34:26;21706.44;;;-141.84;47.03
15260;BME280;34462;51.368;12.364;2023-07-22T08:36:55;21773.53;;;-141.84;46.73
15260;BME280;34462;51.368;12.364;2023-07-22T08:39:23;21767.44;;;-141.84;47.17
15260;BME280;34462;51.368;12.364;2023-07-22T08:41:53;21755.22;;;-141.84;47.48
15260;BME280;34462;51.368;12.364;2023-07-22T08:44:25;21712.53;;;-141.84;48.89
15260;BME280;34462;51.368;12.364;2023-07-22T08:47:00;21714.56;;;-141.84;48.00
15260;BME280;34462;51.368;12.364;2023-07-22T08:49:29;21732.84;;;-141.84;47.20
15260;BME280;34462;51.368;12.364;2023-07-22T08:51:58;21712.53;;;-141.84;47.85
15260;BME280;34462;51.368;12.364;2023-07-22T08:54:28;21667.78;;;-141.84;47.89
15260;BME280;34462;51.368;12.364;2023-07-22T08:56:57;21720.66;;;-141.84;46.91
15260;BME280;34462;51.368;12.364;2023-07-22T08:59:25;21712.53;;;-141.84;47.83
15260;BME280;34462;51.368;12.364;2023-07-22T09:01:54;21730.81;;;-141.84;47.07
15260;BME280;34462;51.368;12.364;2023-07-22T09:04:25;21606.78;;;-141.84;47.23
15260;BME280;34462;51.368;12.364;2023-07-22T09:06:54;21598.66;;;-141.84;47.92
15260;BME280;34462;51.368;12.364;2023-07-22T09:09:24;21627.13;;;-141.84;48.15
15260;BME280;34462;51.368;12.364;2023-07-22T09:11:53;21616.97;;;-141.84;48.14
15260;BME280;34462;51.368;12.364;2023-07-22T09:14:22;21643.38;;;-141.84;47.13
15260;BME280;34462;51.368;12.364;2023-07-22T09:17:03;21661.69;;;-141.84;46.25
15260;BME280;34462;51.368;12.364;2023-07-22T09:19:33;21639.31;;;-141.84;46.85
15260;BME280;34462;51.368;12.364;2023-07-22T09:22:02;21659.66;;;-141.84;48.35
15260;BME280;34462;51.368;12.364;2023-07-22T09:24:30;21712.53;;;-141.84;48.12
15260;BME280;34462;51.368;12.364;2023-07-22T09:26:59;21802.00;;;-141.84;45.82
15260;BME280;34462;51.368;12.364;2023-07-22T09:29:35;21865.03;;;-141.84;45.33
15260;BME280;34462;51.368;12.364;2023-07-22T09:32:05;21899.59;;;-141.84;45.05
15260;BME280;34462;51.368;12.364;2023-07-22T09:34:35;21858.94;;;-141.84;44.98
15260;BME280;34462;51.368;12.364;2023-07-22T09:37:03;21814.19;;;-141.84;46.60
15260;BME280;34462;51.368;12.364;2023-07-22T09:39:32;21840.63;;;-141.84;44.34
15260;BME280;34462;51.368;12.364;2023-07-22T09:42:04;21948.41;;;-141.84;44.95
15260;BME280;34462;51.368;12.364;2023-07-22T09:44:33;21997.19;;;-141.84;44.27
15260;BME280;34462;51.368;12.364;2023-07-22T09:47:06;22021.59;;;-141.84;44.71
15260;BME280;34462;51.368;12.364;2023-07-22T09:49:41;22035.84;;;-141.84;45.00
15260;BME280;34462;51.368;12.364;2023-07-22T09:52:11;22145.66;;;-141.84;44.71
15260;BME280;34462;51.368;12.364;2023-07-22T09:54:47;22135.47;;;-141.84;43.21
15260;BME280;34462;51.368;12.364;2023-07-22T09:57:17;22147.69;;;-141.84;44.15
15260;BME280;34462;51.368;12.364;2023-07-22T09:59:47;22208.69;;;-141.84;43.59
15260;BME280;34462;51.368;12.364;2023-07-22T10:02:18;22229.03;;;-141.84;43.31
15260;BME280;34462;51.368;12.364;2023-07-22T10:04:52;22141.59;;;-141.84;43.85
15260;BME280;34462;51.368;12.364;2023-07-22T10:07:21;22111.09;;;-141.84;42.75
15260;BME280;34462;51.368;12.364;2023-07-22T10:09:52;22102.94;;;-141.84;43.56
15260;BME280;34462;51.368;12.364;2023-07-22T10:12:21;22084.66;;;-141.84;43.96
15260;BME280;34462;51.368;12.364;2023-07-22T10:14:51;22094.81;;;-141.84;44.55
15260;BME280;34462;51.368;12.364;2023-07-22T10:17:20;22143.63;;;-141.84;42.66
15260;BME280;34462;51.368;12.364;2023-07-22T10:19:52;22151.75;;;-141.84;44.04
15260;BME280;34462;51.368;12.364;2023-07-22T10:22:21;22115.16;;;-141.84;44.12
15260;BME280;34462;51.368;12.364;2023-07-22T10:24:50;22137.50;;;-141.84;44.37
15260;BME280;34462;51.368;12.364;2023-07-22T10:27:20;22143.63;;;-141.84;43.10
15260;BME280;34462;51.368;12.364;2023-07-22T10:29:49;22196.50;;;-141.84;43.13
15260;BME280;34462;51.368;12.364;2023-07-22T10:32:18;22326.66;;;-141.84;42.06
15260;BME280;34462;51.368;12.364;2023-07-22T10:34:46;22399.84;;;-141.84;41.59
15260;BME280;34462;51.368;12.364;2023-07-22T10:37:18;22273.78;;;-141.84;41.29
15260;BME280;34462;51.368;12.364;2023-07-22T10:39:48;22172.09;;;-141.84;42.42
15260;BME280;34462;51.368;12.364;2023-07-22T10:42:25;22176.16;;;-141.84;43.55
15260;BME280;34462;51.368;12.364;2023-07-22T10:44:53;22198.53;;;-141.84;42.35
15260;BME280;34462;51.368;12.364;2023-07-22T10:47:34;22328.69;;;-141.84;41.80
15260;BME280;34462;51.368;12.364;2023-07-22T10:50:08;22403.94;;;-141.84;41.55
15260;BME280;34462;51.368;12.364;2023-07-22T10:52:43;22381.56;;;-141.84;41.13
15260;BME280;34462;51.368;12.364;2023-07-22T10:55:16;22371.38;;;-141.84;41.36
15260;BME280;34462;51.368;12.364;2023-07-22T10:57:54;22346.97;;;-141.84;41.39
15260;BME280;34462;51.368;12.364;2023-07-22T11:00:23;22310.38;;;-141.84;41.75
15260;BME280;34462;51.368;12.364;2023-07-22T11:03:10;22334.78;;;-141.84;41.32
15260;BME280;34462;51.368;12.364;2023-07-22T11:05:49;22357.16;;;-141.84;41.58
15260;BME280;34462;51.368;12.364;2023-07-22T11:08:36;22326.66;;;-141.84;40.83
15260;BME280;34462;51.368;12.364;2023-07-22T11:11:05;22294.09;;;-141.84;41.38
15260;BME280;34462;51.368;12.364;2023-07-22T11:13:38;22346.97;;;-141.84;41.39
15260;BME280;34462;51.368;12.364;2023-07-22T11:16:10;22428.31;;;-141.84;40.61
15260;BME280;34462;51.368;12.364;2023-07-22T11:18:41;22491.38;;;-141.84;40.29
15260;BME280;34462;51.368;12.364;2023-07-22T11:21:11;22511.72;;;-141.84;39.57
15260;BME280;34462;51.368;12.364;2023-07-22T11:23:41;22530.00;;;-141.84;39.16
15260;BME280;34462;51.368;12.364;2023-07-22T11:26:10;22519.84;;;-141.84;38.93
15260;BME280;34462;51.368;12.364;2023-07-22T11:28:39;22493.41;;;-141.84;38.82
15260;BME280;34462;51.368;12.364;2023-07-22T11:31:08;22536.13;;;-141.84;39.54
15260;BME280;34462;51.368;12.364;2023-07-22T11:33:40;22593.06;;;-141.84;38.72
15260;BME280;34462;51.368;12.364;2023-07-22T11:36:10;22692.72;;;-141.84;38.98
15260;BME280;34462;51.368;12.364;2023-07-22T11:38:40;22796.44;;;-141.84;38.10
15260;BME280;34462;51.368;12.364;2023-07-22T11:41:09;22790.34;;;-141.84;37.93
15260;BME280;34462;51.368;12.364;2023-07-22T11:43:38;22774.06;;;-141.84;38.13
15260;BME280;34462;51.368;12.364;2023-07-22T11:46:07;22680.53;;;-141.84;39.42
15260;BME280;34462;51.368;12.364;2023-07-22T11:48:36;22574.75;;;-141.84;39.65
15260;BME280;34462;51.368;12.364;2023-07-22T11:51:06;22503.56;;;-141.84;39.13
15260;BME280;34462;51.368;12.364;2023-07-22T11:53:35;22424.25;;;-141.84;39.58
15260;BME280;34462;51.368;12.364;2023-07-22T11:56:05;22426.28;;;-141.84;40.64
15260;BME280;34462;51.368;12.364;2023-07-22T11:58:34;22416.13;;;-141.84;39.63
15260;BME280;34462;51.368;12.364;2023-07-22T12:01:05;22401.88;;;-141.84;40.00
15260;BME280;34462;51.368;12.364;2023-07-22T12:03:34;22517.81;;;-141.84;39.64
15260;BME280;34462;51.368;12.364;2023-07-22T12:06:03;22534.09;;;-141.84;38.90
15260;BME280;34462;51.368;12.364;2023-07-22T12:08:32;22611.38;;;-141.84;38.38
15260;BME280;34462;51.368;12.364;2023-07-22T12:11:01;22711.03;;;-141.84;38.08
15260;BME280;34462;51.368;12.364;2023-07-22T12:13:37;22794.41;;;-141.84;37.09
15260;BME280;34462;51.368;12.364;2023-07-22T12:16:06;22790.34;;;-141.84;37.71
15260;BME280;34462;51.368;12.364;2023-07-22T12:18:42;22682.56;;;-141.84;38.05
15260;BME280;34462;51.368;12.364;2023-07-22T12:21:11;22731.38;;;-141.84;37.89
15260;BME280;34462;51.368;12.364;2023-07-22T12:23:40;22729.34;;;-141.84;39.17
15260;BME280;34462;51.368;12.364;2023-07-22T12:26:09;22753.75;;;-141.84;37.62
15260;BME280;34462;51.368;12.364;2023-07-22T12:28:39;22729.34;;;-141.84;38.52
15260;BME280;34462;51.368;12.364;2023-07-22T12:31:08;22798.47;;;-141.84;37.09
15260;BME280;34462;51.368;12.364;2023-07-22T12:33:37;22849.34;;;-141.84;37.16
15260;BME280;34462;51.368;12.364;2023-07-22T12:36:06;22800.50;;;-141.84;38.27
15260;BME280;34462;51.368;12.364;2023-07-22T12:38:34;22875.78;;;-141.84;37.16
15260;BME280;34462;51.368;12.364;2023-07-22T12:41:03;22875.78;;;-141.84;36.77
15260;BME280;34462;51.368;12.364;2023-07-22T12:43:32;22824.94;;;-141.84;37.77